createdAt,value
2018-11-07T00:02:19.356Z,16.17
2018-11-07T00:04:49.469Z,16.77
2018-11-07T00:07:19.870Z,16.23
2018-11-07T00:10:07.093Z,16.17
2018-11-07T00:12:37.313Z,15.17
2018-11-07T00:15:10.398Z,15.27
2018-11-07T00:17:40.517Z,14.57
2018-11-07T00:20:11.665Z,15.23
2018-11-07T00:22:42.440Z,15.63
2018-11-07T00:25:13.098Z,15.23
2018-11-07T00:27:43.165Z,15.60
2018-11-07T00:30:13.322Z,14.17
2018-11-07T00:32:43.351Z,16.37
2018-11-07T00:35:13.592Z,15.27
2018-11-07T00:37:44.063Z,14.43
2018-11-07T00:40:14.255Z,14.13
2018-11-07T00:42:44.361Z,14.53
2018-11-07T00:45:14.519Z,15.03
2018-11-07T00:47:44.599Z,14.07
2018-11-07T00:50:16.244Z,14.57
2018-11-07T00:52:46.579Z,14.70
2018-11-07T00:55:17.005Z,14.60
2018-11-07T00:57:47.920Z,13.57
2018-11-07T01:00:20.053Z,14.37
2018-11-07T01:02:50.601Z,14.73
2018-11-07T01:05:20.660Z,14.00
2018-11-07T01:07:50.820Z,15.23
2018-11-07T01:10:24.255Z,15.30
2018-11-07T01:12:54.340Z,15.17
2018-11-07T01:15:24.411Z,14.07
2018-11-07T01:17:54.563Z,14.47
2018-11-07T01:20:24.664Z,13.47
2018-11-07T01:22:54.799Z,14.93
2018-11-07T01:25:24.963Z,15.53
2018-11-07T01:27:55.051Z,14.43
2018-11-07T01:30:25.171Z,13.90
2018-11-07T01:32:55.263Z,15.30
2018-11-07T01:35:25.461Z,15.13
2018-11-07T01:37:55.534Z,15.50
2018-11-07T01:40:25.640Z,15.30
2018-11-07T01:42:55.725Z,13.83
2018-11-07T01:45:26.529Z,14.17
2018-11-07T01:47:56.614Z,13.67
2018-11-07T01:50:26.668Z,14.57
2018-11-07T01:52:56.753Z,13.83
2018-11-07T01:55:26.800Z,15.17
2018-11-07T01:57:57.932Z,14.77
2018-11-07T02:00:28.004Z,13.33
2018-11-07T02:02:58.075Z,13.90
2018-11-07T02:05:28.148Z,14.17
2018-11-07T02:07:58.242Z,14.43
2018-11-07T02:10:28.311Z,14.17
2018-11-07T02:12:58.358Z,14.83
2018-11-07T02:15:28.479Z,14.27
2018-11-07T02:17:58.574Z,13.67
2018-11-07T02:20:28.684Z,13.00
2018-11-07T02:22:59.529Z,14.50
2018-11-07T02:25:29.644Z,13.07
2018-11-07T02:27:59.806Z,13.77
2018-11-07T02:30:29.908Z,12.93
2018-11-07T02:33:00.030Z,12.57
2018-11-07T02:35:30.738Z,12.87
2018-11-07T02:38:00.841Z,13.33
2018-11-07T02:40:31.039Z,12.33
2018-11-07T02:43:01.198Z,13.43
2018-11-07T02:45:31.252Z,12.63
2018-11-07T02:48:01.376Z,12.73
2018-11-07T02:50:31.452Z,13.57
2018-11-07T02:53:01.537Z,12.17
2018-11-07T02:55:31.616Z,12.20
2018-11-07T02:58:01.702Z,11.10
2018-11-07T03:00:31.715Z,12.40
2018-11-07T03:03:01.834Z,12.73
2018-11-07T03:05:31.912Z,12.90
2018-11-07T03:08:02.072Z,12.13
2018-11-07T03:10:32.170Z,12.80
2018-11-07T03:13:02.264Z,12.93
2018-11-07T03:15:32.370Z,13.70
2018-11-07T03:18:02.445Z,13.63
2018-11-07T03:20:32.572Z,14.13
2018-11-07T03:23:02.964Z,13.47
2018-11-07T03:25:33.028Z,13.57
2018-11-07T03:28:03.141Z,13.00
2018-11-07T03:30:33.253Z,14.17
2018-11-07T03:33:03.312Z,12.27
2018-11-07T03:35:33.445Z,12.77
2018-11-07T03:38:03.511Z,12.33
2018-11-07T03:40:33.635Z,11.90
2018-11-07T03:43:03.804Z,13.43
2018-11-07T03:45:38.950Z,11.83
2018-11-07T03:48:09.164Z,12.10
2018-11-07T03:50:39.226Z,12.13
2018-11-07T03:53:09.330Z,14.03
2018-11-07T03:55:39.953Z,11.97
2018-11-07T03:58:10.072Z,12.60
2018-11-07T04:00:40.164Z,11.73
2018-11-07T04:03:10.235Z,12.03
2018-11-07T04:05:40.294Z,13.00
2018-11-07T04:08:10.360Z,11.90
2018-11-07T04:10:40.465Z,13.47
2018-11-07T04:13:10.557Z,13.00
2018-11-07T04:15:40.633Z,12.77
2018-11-07T04:18:10.896Z,13.07
2018-11-07T04:20:40.979Z,12.20
2018-11-07T04:23:14.315Z,12.80
2018-11-07T04:25:44.441Z,13.00
2018-11-07T04:28:15.803Z,13.33
2018-11-07T04:30:45.908Z,14.63
2018-11-07T04:33:16.867Z,13.53
2018-11-07T04:35:46.962Z,12.97
2018-11-07T04:38:17.051Z,12.53
2018-11-07T04:40:47.113Z,13.07
2018-11-07T04:43:18.415Z,13.73
2018-11-07T04:45:48.523Z,14.10
2018-11-07T04:48:18.617Z,13.17
2018-11-07T04:50:48.709Z,12.40
2018-11-07T04:53:18.792Z,12.83
2018-11-07T04:55:48.895Z,13.27
2018-11-07T04:58:19.418Z,13.13
2018-11-07T05:00:49.487Z,13.83
2018-11-07T05:03:20.218Z,13.50
2018-11-07T05:05:51.021Z,14.30
2018-11-07T05:08:21.141Z,12.77
2018-11-07T05:10:51.179Z,14.00
2018-11-07T05:13:21.337Z,13.77
2018-11-07T05:15:51.373Z,12.73
2018-11-07T05:18:21.917Z,12.87
2018-11-07T05:20:53.783Z,14.30
2018-11-07T05:23:24.706Z,12.17
2018-11-07T05:25:54.815Z,12.03
2018-11-07T05:28:24.912Z,12.50
2018-11-07T05:30:54.995Z,13.13
2018-11-07T05:33:25.127Z,12.77
2018-11-07T05:35:55.355Z,13.60
2018-11-07T05:38:25.451Z,12.70
2018-11-07T05:40:55.556Z,13.50
2018-11-07T05:43:25.675Z,13.33
2018-11-07T05:45:55.847Z,12.77
2018-11-07T05:48:26.985Z,12.87
2018-11-07T05:50:58.089Z,12.67
2018-11-07T05:53:28.262Z,13.30
2018-11-07T05:55:58.294Z,12.70
2018-11-07T05:58:28.406Z,14.53
2018-11-07T06:00:58.544Z,15.53
2018-11-07T06:03:28.616Z,16.07
2018-11-07T06:05:58.691Z,16.40
2018-11-07T06:08:29.582Z,18.17
2018-11-07T06:10:59.712Z,15.67
2018-11-07T06:13:29.862Z,14.90
2018-11-07T06:16:00.070Z,13.83
2018-11-07T06:18:30.205Z,14.93
2018-11-07T06:21:00.310Z,14.70
2018-11-07T06:23:30.424Z,13.13
2018-11-07T06:26:00.506Z,14.47
2018-11-07T06:28:30.603Z,13.83
2018-11-07T06:31:00.705Z,13.97
2018-11-07T06:33:30.805Z,12.80
2018-11-07T06:36:00.880Z,14.53
2018-11-07T06:38:35.199Z,13.87
2018-11-07T06:41:05.820Z,14.10
2018-11-07T06:43:35.902Z,13.37
2018-11-07T06:46:06.027Z,14.33
2018-11-07T06:48:37.262Z,14.70
2018-11-07T06:51:07.382Z,14.40
2018-11-07T06:53:37.418Z,14.23
2018-11-07T06:56:08.273Z,14.07
2018-11-07T06:58:38.326Z,14.80
2018-11-07T07:01:08.485Z,15.30
2018-11-07T07:03:38.525Z,16.70
2018-11-07T07:06:08.658Z,16.00
2018-11-07T07:08:38.733Z,14.67
2018-11-07T07:11:08.852Z,15.20
2018-11-07T07:13:40.432Z,15.30
2018-11-07T07:16:10.480Z,15.93
2018-11-07T07:18:40.849Z,15.53
2018-11-07T07:21:10.922Z,15.07
2018-11-07T07:23:41.092Z,14.70
2018-11-07T07:26:11.820Z,14.90
2018-11-07T07:28:41.910Z,14.20
2018-11-07T07:31:12.014Z,16.50
2018-11-07T07:33:42.198Z,14.17
2018-11-07T07:36:13.294Z,13.97
2018-11-07T07:38:43.612Z,14.13
2018-11-07T07:41:13.732Z,14.80
2018-11-07T07:43:43.811Z,17.43
2018-11-07T07:46:13.938Z,16.43
2018-11-07T07:48:44.040Z,16.07
2018-11-07T07:51:14.136Z,16.67
2018-11-07T07:53:44.306Z,16.93
2018-11-07T07:56:14.381Z,17.67
2018-11-07T07:58:44.530Z,19.67
2018-11-07T08:01:14.628Z,18.03
2018-11-07T08:03:44.704Z,16.10
2018-11-07T08:06:15.035Z,17.67
2018-11-07T08:08:45.130Z,16.77
2018-11-07T08:11:15.243Z,16.20
2018-11-07T08:13:45.353Z,16.43
2018-11-07T08:16:15.451Z,17.93
2018-11-07T08:18:45.590Z,16.63
2018-11-07T08:21:15.800Z,16.23
2018-11-07T08:23:45.855Z,17.30
2018-11-07T08:26:15.969Z,17.47
2018-11-07T08:28:46.098Z,17.87
2018-11-07T08:31:16.228Z,18.03
2018-11-07T08:33:46.340Z,18.47
2018-11-07T08:36:16.466Z,17.37
2018-11-07T08:38:46.560Z,17.03
2018-11-07T08:41:16.654Z,16.30
2018-11-07T08:43:46.715Z,17.87
2018-11-07T08:46:16.992Z,17.30
2018-11-07T08:48:47.101Z,16.37
2018-11-07T08:51:17.459Z,17.40
2018-11-07T08:53:47.585Z,18.37
2018-11-07T08:56:17.732Z,16.80
2018-11-07T08:58:47.788Z,17.27
2018-11-07T09:01:17.922Z,16.63
2018-11-07T09:03:47.990Z,16.70
2018-11-07T09:06:18.149Z,23.37
2018-11-07T09:08:48.301Z,34.63
2018-11-07T09:11:18.445Z,16.13
2018-11-07T09:13:48.786Z,21.37
2018-11-07T09:16:18.861Z,12.90
2018-11-07T09:18:49.139Z,17.70
2018-11-07T09:21:19.228Z,17.60
2018-11-07T09:23:49.337Z,12.63
2018-11-07T09:26:19.545Z,14.17
2018-11-07T09:28:49.694Z,12.70
2018-11-07T09:31:19.792Z,12.20
2018-11-07T09:33:49.860Z,16.30
2018-11-07T09:36:19.905Z,14.03
2018-11-07T09:38:50.038Z,12.97
2018-11-07T09:41:20.139Z,14.07
2018-11-07T09:43:51.819Z,14.00
2018-11-07T09:46:21.927Z,14.87
2018-11-07T09:48:52.029Z,13.63
2018-11-07T09:51:22.241Z,13.30
2018-11-07T09:53:52.421Z,14.23
2018-11-07T09:56:22.666Z,15.03
2018-11-07T09:58:52.793Z,13.67
2018-11-07T10:01:22.981Z,13.70
2018-11-07T10:03:53.101Z,14.50
2018-11-07T10:06:23.289Z,14.77
2018-11-07T10:08:53.377Z,19.93
2018-11-07T10:11:23.463Z,16.03
2018-11-07T10:13:53.617Z,14.17
2018-11-07T10:16:23.755Z,13.07
2018-11-07T10:18:53.942Z,15.47
2018-11-07T10:21:24.088Z,14.57
2018-11-07T10:23:54.222Z,13.77
2018-11-07T10:26:24.863Z,13.87
2018-11-07T10:28:55.277Z,13.97
2018-11-07T10:31:24.993Z,19.47
2018-11-07T10:33:55.071Z,14.40
2018-11-07T10:36:25.184Z,14.33
2018-11-07T10:38:55.342Z,15.77
2018-11-07T10:41:25.443Z,15.47
2018-11-07T10:43:55.618Z,15.70
2018-11-07T10:46:25.705Z,16.20
2018-11-07T10:48:55.872Z,15.73
2018-11-07T10:51:25.928Z,16.13
2018-11-07T10:53:56.036Z,16.03
2018-11-07T10:56:26.116Z,16.70
2018-11-07T10:58:56.178Z,18.00
2018-11-07T11:01:31.561Z,17.33
2018-11-07T11:04:01.704Z,17.13
2018-11-07T11:06:32.024Z,17.23
2018-11-07T11:09:02.137Z,19.80
2018-11-07T11:11:32.218Z,19.30
2018-11-07T11:14:02.360Z,88.67
2018-11-07T11:16:32.512Z,99.00
2018-11-07T11:19:02.650Z,28.47
2018-11-07T11:21:32.815Z,23.73
2018-11-07T11:24:03.112Z,18.80
2018-11-07T11:26:33.318Z,17.20
2018-11-07T11:29:03.497Z,19.33
2018-11-07T11:31:33.577Z,18.93
2018-11-07T11:34:03.890Z,16.63
2018-11-07T11:36:33.914Z,17.63
2018-11-07T11:39:05.162Z,24.50
2018-11-07T11:41:35.452Z,18.50
2018-11-07T11:44:06.146Z,19.23
2018-11-07T11:46:36.342Z,18.00
2018-11-07T11:49:06.754Z,16.93
2018-11-07T11:51:36.862Z,17.70
2018-11-07T11:54:07.030Z,20.63
2018-11-07T11:56:37.604Z,22.67
2018-11-07T11:59:08.245Z,17.17
2018-11-07T12:01:38.819Z,17.40
2018-11-07T12:04:08.915Z,17.37
2018-11-07T12:06:39.028Z,16.77
2018-11-07T12:09:10.369Z,21.57
2018-11-07T12:11:40.525Z,17.50
2018-11-07T12:14:10.617Z,16.10
2018-11-07T12:16:40.860Z,17.40
2018-11-07T12:19:10.966Z,17.57
2018-11-07T12:21:41.135Z,16.83
2018-11-07T12:24:11.328Z,17.53
2018-11-07T12:26:41.448Z,17.40
2018-11-07T12:29:11.714Z,17.37
2018-11-07T12:31:41.814Z,18.23
2018-11-07T12:34:11.914Z,19.27
2018-11-07T12:36:42.028Z,19.57
2018-11-07T12:39:12.152Z,18.87
2018-11-07T12:41:42.535Z,19.53
2018-11-07T12:44:12.725Z,18.07
2018-11-07T12:46:42.814Z,18.80
2018-11-07T12:49:12.932Z,18.43
2018-11-07T12:51:43.054Z,18.77
2018-11-07T12:54:13.299Z,18.70
2018-11-07T12:56:43.399Z,18.97
2018-11-07T12:59:13.505Z,17.13
2018-11-07T13:01:43.663Z,19.00
2018-11-07T13:04:13.821Z,16.97
2018-11-07T13:06:43.959Z,25.00
2018-11-07T13:09:14.053Z,23.23
2018-11-07T13:11:44.274Z,25.93
2018-11-07T13:14:14.432Z,22.50
2018-11-07T13:16:44.638Z,17.13
2018-11-07T13:19:14.687Z,18.57
2018-11-07T13:21:44.764Z,23.13
2018-11-07T13:24:14.838Z,29.13
2018-11-07T13:26:44.982Z,56.20
2018-11-07T13:29:15.091Z,39.60
2018-11-07T13:31:45.226Z,17.57
2018-11-07T13:34:15.395Z,18.97
2018-11-07T13:36:45.545Z,32.50
2018-11-07T13:39:15.900Z,22.70
2018-11-07T13:41:46.791Z,25.63
2018-11-07T13:44:17.157Z,19.80
2018-11-07T13:46:47.244Z,20.60
2018-11-07T13:49:17.326Z,19.60
2018-11-07T13:51:47.451Z,19.97
2018-11-07T13:54:17.584Z,17.87
2018-11-07T13:56:47.665Z,19.50
2018-11-07T13:59:17.766Z,17.57
2018-11-07T14:01:47.807Z,21.07
2018-11-07T14:04:17.937Z,19.23
2018-11-07T14:06:48.054Z,18.40
2018-11-07T14:09:18.140Z,19.17
2018-11-07T14:11:48.242Z,17.90
2018-11-07T14:14:18.327Z,18.00
2018-11-07T14:16:48.475Z,17.53
2018-11-07T14:19:18.573Z,17.60
2018-11-07T14:21:48.945Z,17.70
2018-11-07T14:24:19.021Z,17.87
